sensor_id;sensor_type;location;lat;lon;timestamp;P1;durP1;ratioP1;P2;durP2;ratioP2
48207;SDS011;33997;53.278;9.708;2023-02-18T00:01:08;16.55;;;2.67;;
48207;SDS011;33997;53.278;9.708;2023-02-18T00:03:38;10.80;;;2.22;;
48207;SDS011;33997;53.278;9.708;2023-02-18T00:06:11;14.90;;;1.98;;
48207;SDS011;33997;53.278;9.708;2023-02-18T00:08:38;15.80;;;2.33;;
48207;SDS011;33997;53.278;9.708;2023-02-18T00:11:05;13.95;;;2.15;;
48207;SDS011;33997;53.278;9.708;2023-02-18T00:13:31;14.60;;;2.63;;
48207;SDS011;33997;53.278;9.708;2023-02-18T00:16:07;16.00;;;2.25;;
48207;SDS011;33997;53.278;9.708;2023-02-18T00:18:34;12.35;;;2.33;;
48207;SDS011;33997;53.278;9.708;2023-02-18T00:20:59;11.93;;;2.25;;
48207;SDS011;33997;53.278;9.708;2023-02-18T00:23:27;11.57;;;2.20;;
48207;SDS011;33997;53.278;9.708;2023-02-18T00:26:03;11.68;;;1.90;;
48207;SDS011;33997;53.278;9.708;2023-02-18T00:28:30;13.25;;;2.17;;
48207;SDS011;33997;53.278;9.708;2023-02-18T00:30:56;10.63;;;1.90;;
48207;SDS011;33997;53.278;9.708;2023-02-18T00:33:21;9.77;;;2.25;;
48207;SDS011;33997;53.278;9.708;2023-02-18T00:35:47;14.68;;;2.03;;
48207;SDS011;33997;53.278;9.708;2023-02-18T00:38:12;11.15;;;2.40;;
48207;SDS011;33997;53.278;9.708;2023-02-18T00:40:38;6.43;;;1.92;;
48207;SDS011;33997;53.278;9.708;2023-02-18T00:43:04;14.43;;;1.80;;
48207;SDS011;33997;53.278;9.708;2023-02-18T00:45:30;13.30;;;2.33;;
48207;SDS011;33997;53.278;9.708;2023-02-18T00:47:55;20.58;;;2.90;;
48207;SDS011;33997;53.278;9.708;2023-02-18T00:50:21;10.27;;;2.28;;
48207;SDS011;33997;53.278;9.708;2023-02-18T00:52:46;18.38;;;2.25;;
48207;SDS011;33997;53.278;9.708;2023-02-18T00:55:12;15.88;;;2.58;;
48207;SDS011;33997;53.278;9.708;2023-02-18T00:57:37;9.65;;;2.03;;
48207;SDS011;33997;53.278;9.708;2023-02-18T01:00:04;21.10;;;2.60;;
48207;SDS011;33997;53.278;9.708;2023-02-18T01:02:30;18.95;;;2.75;;
48207;SDS011;33997;53.278;9.708;2023-02-18T01:04:56;15.00;;;2.80;;
48207;SDS011;33997;53.278;9.708;2023-02-18T01:07:21;14.30;;;2.35;;
48207;SDS011;33997;53.278;9.708;2023-02-18T01:09:47;24.30;;;2.75;;
48207;SDS011;33997;53.278;9.708;2023-02-18T01:12:12;13.15;;;2.85;;
48207;SDS011;33997;53.278;9.708;2023-02-18T01:14:38;17.33;;;2.50;;
48207;SDS011;33997;53.278;9.708;2023-02-18T01:17:04;13.68;;;2.78;;
48207;SDS011;33997;53.278;9.708;2023-02-18T01:19:29;13.73;;;3.15;;
48207;SDS011;33997;53.278;9.708;2023-02-18T01:21:55;14.32;;;2.08;;
48207;SDS011;33997;53.278;9.708;2023-02-18T01:24:20;15.23;;;2.28;;
48207;SDS011;33997;53.278;9.708;2023-02-18T01:26:46;21.42;;;2.53;;
48207;SDS011;33997;53.278;9.708;2023-02-18T01:29:11;17.60;;;2.75;;
48207;SDS011;33997;53.278;9.708;2023-02-18T01:31:37;18.05;;;2.28;;
48207;SDS011;33997;53.278;9.708;2023-02-18T01:34:02;18.95;;;2.85;;
48207;SDS011;33997;53.278;9.708;2023-02-18T01:36:28;20.45;;;2.72;;
48207;SDS011;33997;53.278;9.708;2023-02-18T01:38:53;13.98;;;2.35;;
48207;SDS011;33997;53.278;9.708;2023-02-18T01:41:19;20.25;;;3.28;;
48207;SDS011;33997;53.278;9.708;2023-02-18T01:43:44;17.65;;;2.47;;
48207;SDS011;33997;53.278;9.708;2023-02-18T01:46:15;13.30;;;2.83;;
48207;SDS011;33997;53.278;9.708;2023-02-18T01:48:46;19.10;;;2.88;;
48207;SDS011;33997;53.278;9.708;2023-02-18T01:51:16;13.43;;;2.17;;
48207;SDS011;33997;53.278;9.708;2023-02-18T01:53:58;17.67;;;2.00;;
48207;SDS011;33997;53.278;9.708;2023-02-18T01:56:36;16.33;;;2.40;;
48207;SDS011;33997;53.278;9.708;2023-02-18T01:59:06;14.55;;;2.50;;
48207;SDS011;33997;53.278;9.708;2023-02-18T02:01:36;13.75;;;2.17;;
48207;SDS011;33997;53.278;9.708;2023-02-18T02:04:04;17.88;;;2.90;;
48207;SDS011;33997;53.278;9.708;2023-02-18T02:06:29;11.77;;;2.00;;
48207;SDS011;33997;53.278;9.708;2023-02-18T02:08:56;13.63;;;1.88;;
48207;SDS011;33997;53.278;9.708;2023-02-18T02:11:33;10.65;;;1.83;;
48207;SDS011;33997;53.278;9.708;2023-02-18T02:14:15;12.80;;;2.22;;
48207;SDS011;33997;53.278;9.708;2023-02-18T02:17:05;11.02;;;1.80;;
48207;SDS011;33997;53.278;9.708;2023-02-18T02:20:04;12.45;;;2.28;;
48207;SDS011;33997;53.278;9.708;2023-02-18T02:32:09;11.35;;;2.00;;
48207;SDS011;33997;53.278;9.708;2023-02-18T02:34:54;13.05;;;2.30;;
48207;SDS011;33997;53.278;9.708;2023-02-18T02:37:41;11.07;;;1.60;;
48207;SDS011;33997;53.278;9.708;2023-02-18T02:46:12;19.30;;;2.33;;
48207;SDS011;33997;53.278;9.708;2023-02-18T02:48:46;11.27;;;1.83;;
48207;SDS011;33997;53.278;9.708;2023-02-18T02:51:45;11.43;;;1.83;;
48207;SDS011;33997;53.278;9.708;2023-02-18T02:54:19;10.35;;;2.33;;
48207;SDS011;33997;53.278;9.708;2023-02-18T02:56:49;17.90;;;2.22;;
48207;SDS011;33997;53.278;9.708;2023-02-18T02:59:38;11.93;;;2.13;;
48207;SDS011;33997;53.278;9.708;2023-02-18T03:02:11;12.90;;;1.88;;
48207;SDS011;33997;53.278;9.708;2023-02-18T03:07:54;10.38;;;1.70;;
48207;SDS011;33997;53.278;9.708;2023-02-18T03:10:52;12.77;;;2.13;;
48207;SDS011;33997;53.278;9.708;2023-02-18T03:13:32;19.05;;;2.30;;
48207;SDS011;33997;53.278;9.708;2023-02-18T03:16:27;13.63;;;1.85;;
48207;SDS011;33997;53.278;9.708;2023-02-18T03:19:02;13.00;;;2.67;;
48207;SDS011;33997;53.278;9.708;2023-02-18T03:24:19;17.08;;;2.67;;
48207;SDS011;33997;53.278;9.708;2023-02-18T03:27:35;10.18;;;2.53;;
48207;SDS011;33997;53.278;9.708;2023-02-18T03:29:51;12.38;;;2.75;;
48207;SDS011;33997;53.278;9.708;2023-02-18T03:32:21;14.60;;;2.22;;
48207;SDS011;33997;53.278;9.708;2023-02-18T03:34:50;11.93;;;2.05;;
48207;SDS011;33997;53.278;9.708;2023-02-18T03:37:20;17.58;;;2.63;;
48207;SDS011;33997;53.278;9.708;2023-02-18T03:39:47;17.27;;;2.35;;
48207;SDS011;33997;53.278;9.708;2023-02-18T03:42:16;13.25;;;2.45;;
48207;SDS011;33997;53.278;9.708;2023-02-18T03:44:42;14.73;;;2.63;;
48207;SDS011;33997;53.278;9.708;2023-02-18T03:47:08;15.20;;;2.60;;
48207;SDS011;33997;53.278;9.708;2023-02-18T03:49:34;9.88;;;2.63;;
48207;SDS011;33997;53.278;9.708;2023-02-18T03:51:59;10.48;;;2.53;;
48207;SDS011;33997;53.278;9.708;2023-02-18T03:54:25;13.65;;;2.35;;
48207;SDS011;33997;53.278;9.708;2023-02-18T03:56:50;13.23;;;2.38;;
48207;SDS011;33997;53.278;9.708;2023-02-18T03:59:16;15.07;;;2.65;;
48207;SDS011;33997;53.278;9.708;2023-02-18T04:01:41;13.50;;;1.98;;
48207;SDS011;33997;53.278;9.708;2023-02-18T04:04:07;14.43;;;2.70;;
48207;SDS011;33997;53.278;9.708;2023-02-18T04:06:32;13.88;;;2.15;;
48207;SDS011;33997;53.278;9.708;2023-02-18T04:08:58;9.20;;;1.77;;
48207;SDS011;33997;53.278;9.708;2023-02-18T04:11:23;9.75;;;1.58;;
48207;SDS011;33997;53.278;9.708;2023-02-18T04:13:49;13.13;;;1.98;;
48207;SDS011;33997;53.278;9.708;2023-02-18T04:16:14;11.75;;;2.10;;
48207;SDS011;33997;53.278;9.708;2023-02-18T04:18:40;12.48;;;1.83;;
48207;SDS011;33997;53.278;9.708;2023-02-18T04:21:05;11.65;;;2.20;;
48207;SDS011;33997;53.278;9.708;2023-02-18T04:23:31;14.95;;;2.00;;
48207;SDS011;33997;53.278;9.708;2023-02-18T04:25:56;14.57;;;2.17;;
48207;SDS011;33997;53.278;9.708;2023-02-18T04:28:22;10.63;;;2.10;;
48207;SDS011;33997;53.278;9.708;2023-02-18T04:30:47;12.65;;;2.20;;
48207;SDS011;33997;53.278;9.708;2023-02-18T04:33:13;7.43;;;1.95;;
48207;SDS011;33997;53.278;9.708;2023-02-18T04:35:39;9.40;;;1.50;;
48207;SDS011;33997;53.278;9.708;2023-02-18T04:38:05;13.80;;;2.60;;
48207;SDS011;33997;53.278;9.708;2023-02-18T04:40:31;14.18;;;2.17;;
48207;SDS011;33997;53.278;9.708;2023-02-18T04:42:57;10.65;;;1.88;;
48207;SDS011;33997;53.278;9.708;2023-02-18T04:45:23;15.02;;;2.08;;
48207;SDS011;33997;53.278;9.708;2023-02-18T04:47:49;10.55;;;1.73;;
48207;SDS011;33997;53.278;9.708;2023-02-18T04:50:15;9.02;;;1.90;;
48207;SDS011;33997;53.278;9.708;2023-02-18T04:52:40;11.38;;;2.30;;
48207;SDS011;33997;53.278;9.708;2023-02-18T04:55:06;12.43;;;2.38;;
48207;SDS011;33997;53.278;9.708;2023-02-18T04:57:31;10.85;;;2.03;;
48207;SDS011;33997;53.278;9.708;2023-02-18T04:59:57;13.65;;;2.17;;
48207;SDS011;33997;53.278;9.708;2023-02-18T05:02:22;11.13;;;2.03;;
48207;SDS011;33997;53.278;9.708;2023-02-18T05:04:48;13.48;;;1.77;;
48207;SDS011;33997;53.278;9.708;2023-02-18T05:07:13;13.25;;;2.25;;
48207;SDS011;33997;53.278;9.708;2023-02-18T05:09:39;12.98;;;1.75;;
48207;SDS011;33997;53.278;9.708;2023-02-18T05:12:05;15.60;;;2.28;;
48207;SDS011;33997;53.278;9.708;2023-02-18T05:14:30;14.57;;;2.30;;
48207;SDS011;33997;53.278;9.708;2023-02-18T05:16:56;10.50;;;2.25;;
48207;SDS011;33997;53.278;9.708;2023-02-18T05:19:21;13.68;;;2.42;;
48207;SDS011;33997;53.278;9.708;2023-02-18T05:21:47;12.20;;;2.15;;
48207;SDS011;33997;53.278;9.708;2023-02-18T05:24:12;14.32;;;2.30;;
48207;SDS011;33997;53.278;9.708;2023-02-18T05:26:38;17.35;;;2.40;;
48207;SDS011;33997;53.278;9.708;2023-02-18T05:29:04;12.05;;;1.75;;
48207;SDS011;33997;53.278;9.708;2023-02-18T05:31:29;11.30;;;2.05;;
48207;SDS011;33997;53.278;9.708;2023-02-18T05:33:55;15.52;;;2.25;;
48207;SDS011;33997;53.278;9.708;2023-02-18T05:36:21;15.52;;;2.10;;
48207;SDS011;33997;53.278;9.708;2023-02-18T05:38:46;8.98;;;1.85;;
48207;SDS011;33997;53.278;9.708;2023-02-18T05:41:12;16.15;;;2.30;;
48207;SDS011;33997;53.278;9.708;2023-02-18T05:43:37;16.50;;;1.77;;
48207;SDS011;33997;53.278;9.708;2023-02-18T05:46:21;10.35;;;1.83;;
48207;SDS011;33997;53.278;9.708;2023-02-18T05:48:47;10.18;;;1.42;;
48207;SDS011;33997;53.278;9.708;2023-02-18T05:51:13;15.63;;;1.95;;
48207;SDS011;33997;53.278;9.708;2023-02-18T05:53:38;8.98;;;1.40;;
48207;SDS011;33997;53.278;9.708;2023-02-18T05:56:05;15.25;;;2.13;;
48207;SDS011;33997;53.278;9.708;2023-02-18T05:58:31;8.07;;;1.17;;
48207;SDS011;33997;53.278;9.708;2023-02-18T06:00:56;9.77;;;1.42;;
48207;SDS011;33997;53.278;9.708;2023-02-18T06:03:22;12.45;;;1.60;;
48207;SDS011;33997;53.278;9.708;2023-02-18T06:05:50;8.55;;;1.40;;
48207;SDS011;33997;53.278;9.708;2023-02-18T06:08:16;7.57;;;1.67;;
48207;SDS011;33997;53.278;9.708;2023-02-18T06:10:43;6.70;;;1.23;;
48207;SDS011;33997;53.278;9.708;2023-02-18T06:13:09;6.10;;;1.17;;
48207;SDS011;33997;53.278;9.708;2023-02-18T06:15:34;5.78;;;1.30;;
48207;SDS011;33997;53.278;9.708;2023-02-18T06:18:00;8.73;;;1.85;;
48207;SDS011;33997;53.278;9.708;2023-02-18T06:20:25;13.05;;;1.48;;
48207;SDS011;33997;53.278;9.708;2023-02-18T06:22:51;8.07;;;1.33;;
48207;SDS011;33997;53.278;9.708;2023-02-18T06:25:16;10.95;;;1.48;;
48207;SDS011;33997;53.278;9.708;2023-02-18T06:27:42;11.73;;;1.33;;
48207;SDS011;33997;53.278;9.708;2023-02-18T06:30:07;6.95;;;1.40;;
48207;SDS011;33997;53.278;9.708;2023-02-18T06:32:33;9.73;;;1.60;;
48207;SDS011;33997;53.278;9.708;2023-02-18T06:34:59;8.60;;;1.70;;
48207;SDS011;33997;53.278;9.708;2023-02-18T06:37:24;6.93;;;1.50;;
48207;SDS011;33997;53.278;9.708;2023-02-18T06:39:50;13.73;;;1.83;;
48207;SDS011;33997;53.278;9.708;2023-02-18T06:42:15;6.45;;;1.27;;
48207;SDS011;33997;53.278;9.708;2023-02-18T06:44:41;10.52;;;1.80;;
48207;SDS011;33997;53.278;9.708;2023-02-18T06:47:06;18.10;;;2.00;;
48207;SDS011;33997;53.278;9.708;2023-02-18T06:49:32;8.32;;;1.52;;
48207;SDS011;33997;53.278;9.708;2023-02-18T06:51:57;10.00;;;1.90;;
48207;SDS011;33997;53.278;9.708;2023-02-18T06:54:23;10.38;;;1.48;;
48207;SDS011;33997;53.278;9.708;2023-02-18T06:56:49;5.25;;;1.27;;
48207;SDS011;33997;53.278;9.708;2023-02-18T06:59:15;14.35;;;1.73;;
48207;SDS011;33997;53.278;9.708;2023-02-18T07:01:40;14.70;;;2.25;;
48207;SDS011;33997;53.278;9.708;2023-02-18T07:04:06;15.25;;;2.20;;
48207;SDS011;33997;53.278;9.708;2023-02-18T07:06:31;11.18;;;1.63;;
48207;SDS011;33997;53.278;9.708;2023-02-18T07:08:57;14.15;;;2.20;;
48207;SDS011;33997;53.278;9.708;2023-02-18T07:11:22;7.78;;;2.03;;
48207;SDS011;33997;53.278;9.708;2023-02-18T07:13:48;19.30;;;2.67;;
48207;SDS011;33997;53.278;9.708;2023-02-18T07:16:13;14.68;;;1.70;;
48207;SDS011;33997;53.278;9.708;2023-02-18T07:18:39;9.75;;;1.90;;
48207;SDS011;33997;53.278;9.708;2023-02-18T07:21:04;10.90;;;1.95;;
48207;SDS011;33997;53.278;9.708;2023-02-18T07:23:29;16.27;;;2.50;;
48207;SDS011;33997;53.278;9.708;2023-02-18T07:26:02;13.35;;;2.25;;
48207;SDS011;33997;53.278;9.708;2023-02-18T07:28:29;14.68;;;2.42;;
48207;SDS011;33997;53.278;9.708;2023-02-18T07:30:54;11.18;;;2.22;;
48207;SDS011;33997;53.278;9.708;2023-02-18T07:33:20;11.23;;;2.20;;
48207;SDS011;33997;53.278;9.708;2023-02-18T07:35:45;11.50;;;1.52;;
48207;SDS011;33997;53.278;9.708;2023-02-18T07:38:11;14.27;;;2.08;;
48207;SDS011;33997;53.278;9.708;2023-02-18T07:40:36;11.13;;;2.15;;
48207;SDS011;33997;53.278;9.708;2023-02-18T07:43:01;11.20;;;2.40;;
48207;SDS011;33997;53.278;9.708;2023-02-18T07:45:27;16.98;;;3.00;;
48207;SDS011;33997;53.278;9.708;2023-02-18T07:47:52;12.02;;;2.55;;
48207;SDS011;33997;53.278;9.708;2023-02-18T07:50:18;13.13;;;2.78;;
48207;SDS011;33997;53.278;9.708;2023-02-18T07:52:43;9.80;;;2.72;;
48207;SDS011;33997;53.278;9.708;2023-02-18T07:55:09;14.55;;;3.28;;
48207;SDS011;33997;53.278;9.708;2023-02-18T07:57:34;16.38;;;3.05;;
48207;SDS011;33997;53.278;9.708;2023-02-18T08:00:20;15.75;;;3.00;;
48207;SDS011;33997;53.278;9.708;2023-02-18T08:02:45;13.98;;;3.38;;
48207;SDS011;33997;53.278;9.708;2023-02-18T08:05:11;12.57;;;2.90;;
48207;SDS011;33997;53.278;9.708;2023-02-18T08:07:37;12.48;;;3.28;;
48207;SDS011;33997;53.278;9.708;2023-02-18T08:10:04;11.77;;;3.60;;
48207;SDS011;33997;53.278;9.708;2023-02-18T08:12:30;20.25;;;3.65;;
48207;SDS011;33997;53.278;9.708;2023-02-18T08:14:56;17.25;;;3.97;;
48207;SDS011;33997;53.278;9.708;2023-02-18T08:17:21;18.00;;;3.65;;
48207;SDS011;33997;53.278;9.708;2023-02-18T08:19:46;12.25;;;3.35;;
48207;SDS011;33997;53.278;9.708;2023-02-18T08:22:12;8.73;;;3.28;;
48207;SDS011;33997;53.278;9.708;2023-02-18T08:24:37;10.90;;;3.20;;
48207;SDS011;33997;53.278;9.708;2023-02-18T08:27:03;11.88;;;3.85;;
48207;SDS011;33997;53.278;9.708;2023-02-18T08:29:28;11.52;;;3.45;;
48207;SDS011;33997;53.278;9.708;2023-02-18T08:31:54;10.50;;;4.45;;
48207;SDS011;33997;53.278;9.708;2023-02-18T08:34:21;13.57;;;4.53;;
48207;SDS011;33997;53.278;9.708;2023-02-18T08:36:46;10.57;;;4.18;;
48207;SDS011;33997;53.278;9.708;2023-02-18T08:39:12;9.77;;;3.95;;
48207;SDS011;33997;53.278;9.708;2023-02-18T08:41:37;12.75;;;4.60;;
48207;SDS011;33997;53.278;9.708;2023-02-18T08:44:03;12.70;;;4.35;;
48207;SDS011;33997;53.278;9.708;2023-02-18T08:46:28;9.48;;;3.60;;
48207;SDS011;33997;53.278;9.708;2023-02-18T08:48:54;6.97;;;3.90;;
48207;SDS011;33997;53.278;9.708;2023-02-18T08:51:21;9.70;;;4.60;;
48207;SDS011;33997;53.278;9.708;2023-02-18T08:53:47;10.30;;;4.32;;
48207;SDS011;33997;53.278;9.708;2023-02-18T08:56:13;12.43;;;4.45;;
48207;SDS011;33997;53.278;9.708;2023-02-18T08:58:40;10.40;;;4.03;;
48207;SDS011;33997;53.278;9.708;2023-02-18T09:01:07;9.63;;;3.30;;
48207;SDS011;33997;53.278;9.708;2023-02-18T09:03:34;8.52;;;3.65;;
48207;SDS011;33997;53.278;9.708;2023-02-18T09:06:00;6.85;;;3.42;;
48207;SDS011;33997;53.278;9.708;2023-02-18T09:08:26;7.18;;;3.75;;
48207;SDS011;33997;53.278;9.708;2023-02-18T09:10:56;8.55;;;3.60;;
48207;SDS011;33997;53.278;9.708;2023-02-18T09:13:22;5.65;;;3.30;;
48207;SDS011;33997;53.278;9.708;2023-02-18T09:15:54;6.78;;;3.83;;
48207;SDS011;33997;53.278;9.708;2023-02-18T09:18:22;7.60;;;3.45;;
48207;SDS011;33997;53.278;9.708;2023-02-18T09:20:47;6.22;;;3.58;;
48207;SDS011;33997;53.278;9.708;2023-02-18T09:23:12;6.60;;;3.38;;
48207;SDS011;33997;53.278;9.708;2023-02-18T09:25:39;9.27;;;4.35;;
48207;SDS011;33997;53.278;9.708;2023-02-18T09:28:05;7.57;;;3.92;;
48207;SDS011;33997;53.278;9.708;2023-02-18T09:30:30;7.97;;;3.97;;
48207;SDS011;33997;53.278;9.708;2023-02-18T09:32:56;7.65;;;4.18;;
48207;SDS011;33997;53.278;9.708;2023-02-18T09:35:21;9.50;;;5.20;;
48207;SDS011;33997;53.278;9.708;2023-02-18T09:37:47;12.68;;;5.97;;
48207;SDS011;33997;53.278;9.708;2023-02-18T09:40:23;15.45;;;6.45;;
48207;SDS011;33997;53.278;9.708;2023-02-18T09:42:51;31.30;;;13.60;;
48207;SDS011;33997;53.278;9.708;2023-02-18T09:45:20;13.90;;;7.05;;
48207;SDS011;33997;53.278;9.708;2023-02-18T09:47:45;12.25;;;5.32;;
48207;SDS011;33997;53.278;9.708;2023-02-18T09:50:27;11.35;;;5.30;;
48207;SDS011;33997;53.278;9.708;2023-02-18T09:52:57;14.30;;;6.07;;
48207;SDS011;33997;53.278;9.708;2023-02-18T09:55:26;11.13;;;6.40;;
48207;SDS011;33997;53.278;9.708;2023-02-18T10:00:34;11.07;;;5.88;;
48207;SDS011;33997;53.278;9.708;2023-02-18T10:03:06;12.13;;;5.82;;
48207;SDS011;33997;53.278;9.708;2023-02-18T10:05:38;11.95;;;5.32;;
48207;SDS011;33997;53.278;9.708;2023-02-18T10:08:19;12.02;;;5.40;;
48207;SDS011;33997;53.278;9.708;2023-02-18T10:10:49;11.15;;;5.22;;
48207;SDS011;33997;53.278;9.708;2023-02-18T10:13:16;13.40;;;5.43;;
48207;SDS011;33997;53.278;9.708;2023-02-18T10:15:44;12.77;;;6.05;;
48207;SDS011;33997;53.278;9.708;2023-02-18T10:18:30;12.38;;;4.97;;
48207;SDS011;33997;53.278;9.708;2023-02-18T10:21:01;11.82;;;5.40;;
48207;SDS011;33997;53.278;9.708;2023-02-18T10:23:37;11.18;;;5.35;;
48207;SDS011;33997;53.278;9.708;2023-02-18T10:26:09;10.68;;;4.78;;
48207;SDS011;33997;53.278;9.708;2023-02-18T10:28:40;9.90;;;4.43;;
48207;SDS011;33997;53.278;9.708;2023-02-18T10:31:09;9.00;;;3.95;;
48207;SDS011;33997;53.278;9.708;2023-02-18T10:36:22;5.90;;;3.37;;
48207;SDS011;33997;53.278;9.708;2023-02-18T10:44:56;6.38;;;3.45;;
48207;SDS011;33997;53.278;9.708;2023-02-18T10:47:35;7.05;;;3.20;;
48207;SDS011;33997;53.278;9.708;2023-02-18T10:52:34;7.40;;;3.53;;
48207;SDS011;33997;53.278;9.708;2023-02-18T10:55:06;6.85;;;3.50;;
48207;SDS011;33997;53.278;9.708;2023-02-18T10:57:49;7.40;;;3.60;;
48207;SDS011;33997;53.278;9.708;2023-02-18T11:00:23;7.47;;;3.78;;
48207;SDS011;33997;53.278;9.708;2023-02-18T11:05:41;6.72;;;3.72;;
48207;SDS011;33997;53.278;9.708;2023-02-18T11:08:08;7.05;;;4.90;;
48207;SDS011;33997;53.278;9.708;2023-02-18T11:13:06;5.78;;;3.30;;
48207;SDS011;33997;53.278;9.708;2023-02-18T11:15:33;6.43;;;3.67;;
48207;SDS011;33997;53.278;9.708;2023-02-18T11:21:00;9.65;;;5.65;;
48207;SDS011;33997;53.278;9.708;2023-02-18T11:23:28;8.75;;;4.82;;
48207;SDS011;33997;53.278;9.708;2023-02-18T11:26:03;7.38;;;4.60;;
48207;SDS011;33997;53.278;9.708;2023-02-18T11:28:47;7.75;;;5.30;;
48207;SDS011;33997;53.278;9.708;2023-02-18T11:31:16;6.63;;;4.10;;
48207;SDS011;33997;53.278;9.708;2023-02-18T11:33:55;8.15;;;4.88;;
48207;SDS011;33997;53.278;9.708;2023-02-18T11:36:28;8.20;;;4.93;;
48207;SDS011;33997;53.278;9.708;2023-02-18T11:38:58;6.28;;;3.78;;
48207;SDS011;33997;53.278;9.708;2023-02-18T11:41:34;8.77;;;3.90;;
48207;SDS011;33997;53.278;9.708;2023-02-18T11:44:03;7.82;;;4.13;;
48207;SDS011;33997;53.278;9.708;2023-02-18T11:46:32;7.68;;;4.38;;
48207;SDS011;33997;53.278;9.708;2023-02-18T11:49:10;7.75;;;4.20;;
48207;SDS011;33997;53.278;9.708;2023-02-18T11:51:45;6.28;;;4.45;;
48207;SDS011;33997;53.278;9.708;2023-02-18T11:54:25;7.07;;;4.72;;
48207;SDS011;33997;53.278;9.708;2023-02-18T11:57:05;7.05;;;3.15;;
48207;SDS011;33997;53.278;9.708;2023-02-18T11:59:34;8.05;;;4.05;;
48207;SDS011;33997;53.278;9.708;2023-02-18T12:02:12;5.43;;;3.53;;
48207;SDS011;33997;53.278;9.708;2023-02-18T12:04:55;8.20;;;3.65;;
48207;SDS011;33997;53.278;9.708;2023-02-18T12:07:44;6.07;;;3.58;;
48207;SDS011;33997;53.278;9.708;2023-02-18T12:10:24;6.80;;;3.28;;
48207;SDS011;33997;53.278;9.708;2023-02-18T12:13:06;4.93;;;2.63;;
48207;SDS011;33997;53.278;9.708;2023-02-18T12:15:53;4.15;;;2.10;;
48207;SDS011;33997;53.278;9.708;2023-02-18T12:21:11;3.97;;;1.80;;
48207;SDS011;33997;53.278;9.708;2023-02-18T12:26:44;3.22;;;1.38;;
48207;SDS011;33997;53.278;9.708;2023-02-18T12:29:19;6.47;;;1.73;;
48207;SDS011;33997;53.278;9.708;2023-02-18T12:42:48;3.88;;;1.50;;
48207;SDS011;33997;53.278;9.708;2023-02-18T12:51:32;4.63;;;1.80;;
48207;SDS011;33997;53.278;9.708;2023-02-18T12:54:25;5.50;;;1.63;;
48207;SDS011;33997;53.278;9.708;2023-02-18T12:57:25;1.42;;;1.10;;
48207;SDS011;33997;53.278;9.708;2023-02-18T13:00:11;4.68;;;1.50;;
48207;SDS011;33997;53.278;9.708;2023-02-18T13:05:43;6.63;;;1.50;;
48207;SDS011;33997;53.278;9.708;2023-02-18T13:10:50;3.42;;;1.20;;
48207;SDS011;33997;53.278;9.708;2023-02-18T13:13:26;2.42;;;1.30;;
48207;SDS011;33997;53.278;9.708;2023-02-18T13:16:02;4.45;;;1.52;;
48207;SDS011;33997;53.278;9.708;2023-02-18T13:18:41;6.38;;;1.85;;
48207;SDS011;33997;53.278;9.708;2023-02-18T13:21:12;5.90;;;1.73;;
48207;SDS011;33997;53.278;9.708;2023-02-18T13:23:42;8.50;;;2.30;;
48207;SDS011;33997;53.278;9.708;2023-02-18T13:26:17;6.80;;;2.25;;
48207;SDS011;33997;53.278;9.708;2023-02-18T13:35:03;7.95;;;2.33;;
48207;SDS011;33997;53.278;9.708;2023-02-18T13:37:45;5.80;;;2.17;;
48207;SDS011;33997;53.278;9.708;2023-02-18T13:40:27;11.30;;;2.22;;
48207;SDS011;33997;53.278;9.708;2023-02-18T13:43:15;10.40;;;1.80;;
48207;SDS011;33997;53.278;9.708;2023-02-18T13:45:42;12.63;;;2.72;;
48207;SDS011;33997;53.278;9.708;2023-02-18T13:48:21;9.57;;;2.17;;
48207;SDS011;33997;53.278;9.708;2023-02-18T13:50:51;12.82;;;2.33;;
48207;SDS011;33997;53.278;9.708;2023-02-18T13:53:19;14.75;;;3.10;;
48207;SDS011;33997;53.278;9.708;2023-02-18T13:58:31;16.63;;;2.72;;
48207;SDS011;33997;53.278;9.708;2023-02-18T14:01:20;17.15;;;2.95;;
48207;SDS011;33997;53.278;9.708;2023-02-18T14:03:50;19.75;;;3.22;;
48207;SDS011;33997;53.278;9.708;2023-02-18T14:06:29;20.77;;;3.50;;
48207;SDS011;33997;53.278;9.708;2023-02-18T14:09:02;11.05;;;2.95;;
48207;SDS011;33997;53.278;9.708;2023-02-18T14:11:47;16.52;;;2.22;;
48207;SDS011;33997;53.278;9.708;2023-02-18T14:14:35;28.95;;;4.05;;
48207;SDS011;33997;53.278;9.708;2023-02-18T14:19:52;15.18;;;3.83;;
48207;SDS011;33997;53.278;9.708;2023-02-18T14:22:31;20.08;;;3.55;;
48207;SDS011;33997;53.278;9.708;2023-02-18T14:27:33;14.07;;;3.55;;
48207;SDS011;33997;53.278;9.708;2023-02-18T14:30:03;22.63;;;3.30;;
48207;SDS011;33997;53.278;9.708;2023-02-18T14:32:31;17.90;;;3.00;;
48207;SDS011;33997;53.278;9.708;2023-02-18T14:35:06;14.80;;;3.78;;
48207;SDS011;33997;53.278;9.708;2023-02-18T14:37:57;16.55;;;3.05;;
48207;SDS011;33997;53.278;9.708;2023-02-18T14:41:03;23.02;;;3.30;;
48207;SDS011;33997;53.278;9.708;2023-02-18T14:43:36;19.40;;;3.55;;
48207;SDS011;33997;53.278;9.708;2023-02-18T14:51:50;14.57;;;3.03;;
48207;SDS011;33997;53.278;9.708;2023-02-18T14:54:18;14.20;;;3.03;;
48207;SDS011;33997;53.278;9.708;2023-02-18T14:56:52;20.10;;;3.45;;
48207;SDS011;33997;53.278;9.708;2023-02-18T14:59:35;12.90;;;3.38;;
48207;SDS011;33997;53.278;9.708;2023-02-18T15:02:15;24.20;;;3.33;;
48207;SDS011;33997;53.278;9.708;2023-02-18T15:04:51;14.43;;;3.05;;
48207;SDS011;33997;53.278;9.708;2023-02-18T15:07:20;17.30;;;2.22;;
48207;SDS011;33997;53.278;9.708;2023-02-18T15:09:47;7.72;;;1.98;;
48207;SDS011;33997;53.278;9.708;2023-02-18T15:12:17;11.65;;;2.00;;
48207;SDS011;33997;53.278;9.708;2023-02-18T15:14:45;9.38;;;1.95;;
48207;SDS011;33997;53.278;9.708;2023-02-18T15:17:15;12.13;;;2.47;;
48207;SDS011;33997;53.278;9.708;2023-02-18T15:19:46;13.50;;;2.38;;
48207;SDS011;33997;53.278;9.708;2023-02-18T15:22:16;9.55;;;2.25;;
48207;SDS011;33997;53.278;9.708;2023-02-18T15:24:44;14.35;;;2.75;;
48207;SDS011;33997;53.278;9.708;2023-02-18T15:27:11;12.82;;;2.35;;
48207;SDS011;33997;53.278;9.708;2023-02-18T15:29:39;10.68;;;2.13;;
48207;SDS011;33997;53.278;9.708;2023-02-18T15:32:13;10.23;;;2.53;;
48207;SDS011;33997;53.278;9.708;2023-02-18T15:34:39;14.73;;;3.17;;
48207;SDS011;33997;53.278;9.708;2023-02-18T15:37:05;11.90;;;2.67;;
48207;SDS011;33997;53.278;9.708;2023-02-18T15:39:32;11.60;;;2.90;;
48207;SDS011;33997;53.278;9.708;2023-02-18T15:42:04;18.83;;;3.33;;
48207;SDS011;33997;53.278;9.708;2023-02-18T15:44:44;18.63;;;3.92;;
48207;SDS011;33997;53.278;9.708;2023-02-18T15:47:12;8.65;;;3.08;;
48207;SDS011;33997;53.278;9.708;2023-02-18T15:49:38;10.55;;;2.10;;
48207;SDS011;33997;53.278;9.708;2023-02-18T15:54:35;17.20;;;5.32;;
48207;SDS011;33997;53.278;9.708;2023-02-18T15:57:03;10.98;;;2.83;;
48207;SDS011;33997;53.278;9.708;2023-02-18T15:59:33;14.75;;;2.80;;
48207;SDS011;33997;53.278;9.708;2023-02-18T16:04:37;7.68;;;2.30;;
48207;SDS011;33997;53.278;9.708;2023-02-18T16:07:16;11.63;;;2.90;;
48207;SDS011;33997;53.278;9.708;2023-02-18T16:09:48;14.45;;;2.72;;
48207;SDS011;33997;53.278;9.708;2023-02-18T16:12:27;11.25;;;2.45;;
48207;SDS011;33997;53.278;9.708;2023-02-18T16:14:56;9.70;;;2.28;;
48207;SDS011;33997;53.278;9.708;2023-02-18T16:17:23;7.28;;;2.25;;
48207;SDS011;33997;53.278;9.708;2023-02-18T16:19:57;13.90;;;2.50;;
48207;SDS011;33997;53.278;9.708;2023-02-18T16:25:01;10.23;;;2.35;;
48207;SDS011;33997;53.278;9.708;2023-02-18T16:27:37;9.02;;;2.30;;
48207;SDS011;33997;53.278;9.708;2023-02-18T16:30:34;13.05;;;2.97;;
48207;SDS011;33997;53.278;9.708;2023-02-18T16:32:59;8.63;;;1.88;;
48207;SDS011;33997;53.278;9.708;2023-02-18T16:35:26;8.65;;;2.83;;